Time;durP1;ratioP1;P1;durP2;ratioP2;P2;SDS_P1;SDS_P2;PMS_P1;PMS_P2;Temp;Humidity;BMP_temperature;BMP_pressure;BME280_temperature;BME280_humidity;BME280_pressure;Samples;Min_cycle;Max_cycle;Signal;HPM_P1;HPM_P2
2023/12/03 07:43:39;;;;;;;5.30;2.55;;;;;;;;;;6255259;28;20049;-96
2023/12/03 07:46:41;;;;;;;3.13;2.40;;;;;;;;;;6255418;28;20076;-96
2023/12/03 07:49:44;;;;;;;2.97;2.20;;;;;;;;;;6254238;28;20051;-94
2023/12/03 07:52:46;;;;;;;3.53;2.30;;;;;;;;;;6252442;28;20368;-96
2023/12/03 07:55:48;;;;;;;5.03;2.33;;;;;;;;;;6255300;28;20049;-95
2023/12/03 07:58:52;;;;;;;3.70;2.30;;;;;;;;;;6253421;28;20444;-93
2023/12/03 08:01:54;;;;;;;3.58;2.22;;;;;;;;;;6253623;28;20334;-96
2023/12/03 08:04:56;;;;;;;4.90;2.58;;;;;;;;;;6256357;28;20072;-95
2023/12/03 08:07:59;;;;;;;4.70;2.33;;;;;;;;;;6253439;28;20063;-96
2023/12/03 08:11:01;;;;;;;4.78;2.60;;;;;;;;;;6251725;28;20057;-95
2023/12/03 08:14:05;;;;;;;3.65;2.35;;;;;;;;;;6252721;28;20061;-93
2023/12/03 08:17:11;;;;;;;4.70;2.60;;;;;;;;;;6254174;28;20057;-95
2023/12/03 08:20:13;;;;;;;4.32;2.10;;;;;;;;;;6251459;28;25473;-93
2023/12/03 08:23:15;;;;;;;3.20;2.30;;;;;;;;;;6253921;28;20049;-94
2023/12/03 08:26:17;;;;;;;4.22;2.30;;;;;;;;;;6253794;28;20049;-95
2023/12/03 08:29:21;;;;;;;4.82;2.38;;;;;;;;;;6252677;28;20075;-94
2023/12/03 08:32:43;;;;;;;5.20;2.67;;;;;;;;;;6214934;28;20053;-92
2023/12/03 08:35:45;;;;;;;4.50;2.05;;;;;;;;;;6251575;28;20057;-94
2023/12/03 08:38:48;;;;;;;6.88;2.20;;;;;;;;;;6252481;28;20062;-96
2023/12/03 08:41:50;;;;;;;3.55;2.15;;;;;;;;;;6255144;28;20050;-94
2023/12/03 08:44:54;;;;;;;3.63;2.65;;;;;;;;;;6252048;28;20064;-93
2023/12/03 08:51:32;;;;;;;4.13;2.50;;;;;;;;;;6256428;28;20053;-95
2023/12/03 08:54:34;;;;;;;5.70;2.83;;;;;;;;;;6251689;28;20057;-95
2023/12/03 08:57:36;;;;;;;4.47;2.70;;;;;;;;;;6254615;28;20041;-95
2023/12/03 09:03:55;;;;;;;4.65;2.90;;;;;;;;;;6245274;28;20061;-94
2023/12/03 09:06:57;;;;;;;4.20;2.75;;;;;;;;;;6252966;28;20061;-92
2023/12/03 09:09:59;;;;;;;4.45;3.05;;;;;;;;;;6253539;28;20088;-93
2023/12/03 09:13:01;;;;;;;4.03;2.55;;;;;;;;;;6252408;28;20069;-95
2023/12/03 09:16:30;;;;;;;599.90;53.28;;;;;;;;;;6255938;28;20057;-94
2023/12/03 09:19:31;;;;;;;42.33;4.57;;;;;;;;;;6256323;28;20069;-95
2023/12/03 09:22:33;;;;;;;3.15;2.25;;;;;;;;;;6254740;28;20045;-94
2023/12/03 09:25:36;;;;;;;5.50;2.42;;;;;;;;;;6254928;28;20053;-96
2023/12/03 09:28:37;;;;;;;7.82;2.40;;;;;;;;;;6256770;28;20045;-94
2023/12/03 09:31:43;;;;;;;3.05;2.40;;;;;;;;;;6255609;28;20046;-96
2023/12/03 09:34:46;;;;;;;5.05;2.88;;;;;;;;;;6270213;28;20068;-93
2023/12/03 09:37:49;;;;;;;3.30;2.15;;;;;;;;;;6252220;28;20053;-92
2023/12/03 09:40:54;;;;;;;3.80;2.40;;;;;;;;;;6252628;28;20057;-93
2023/12/03 09:43:59;;;;;;;4.90;2.20;;;;;;;;;;6257378;28;20053;-95
2023/12/03 09:50:19;;;;;;;2.42;1.80;;;;;;;;;;6255366;28;20049;-92
2023/12/03 09:53:22;;;;;;;2.85;1.60;;;;;;;;;;6257989;28;20056;-93
2023/12/03 09:56:25;;;;;;;2.40;1.60;;;;;;;;;;6254218;28;20042;-92
2023/12/03 09:59:28;;;;;;;3.17;1.60;;;;;;;;;;6264543;28;20087;-88
2023/12/03 10:02:32;;;;;;;9.13;2.17;;;;;;;;;;6253220;28;20063;-92
2023/12/03 10:05:35;;;;;;;2.45;1.80;;;;;;;;;;6264799;28;20112;-90
2023/12/03 10:08:37;;;;;;;4.57;2.08;;;;;;;;;;6256710;28;20059;-90
2023/12/03 10:11:40;;;;;;;4.85;2.25;;;;;;;;;;6257531;28;20053;-90
2023/12/03 10:14:42;;;;;;;3.03;2.10;;;;;;;;;;6242828;28;20352;-93
2023/12/03 10:17:47;;;;;;;3.85;2.03;;;;;;;;;;6258051;28;20061;-92
2023/12/03 10:20:49;;;;;;;3.67;1.98;;;;;;;;;;6245496;28;20246;-93
2023/12/03 10:23:57;;;;;;;3.50;2.00;;;;;;;;;;6256875;28;20060;-89
2023/12/03 10:27:01;;;;;;;3.30;1.60;;;;;;;;;;6255935;28;20072;-88
2023/12/03 10:30:05;;;;;;;3.23;1.60;;;;;;;;;;6257854;28;20068;-90
2023/12/03 10:36:35;;;;;;;2.17;1.52;;;;;;;;;;6253055;28;20195;-91
2023/12/03 10:39:43;;;;;;;3.20;1.60;;;;;;;;;;6255085;28;20113;-90
2023/12/03 10:42:50;;;;;;;5.15;1.70;;;;;;;;;;6254888;28;20057;-90
2023/12/03 10:45:56;;;;;;;2.30;1.65;;;;;;;;;;6257156;28;20057;-89
2023/12/03 10:49:02;;;;;;;3.53;1.73;;;;;;;;;;6257084;28;20395;-91
2023/12/03 10:52:07;;;;;;;2.25;1.58;;;;;;;;;;6256594;28;20076;-92
2023/12/03 10:55:11;;;;;;;4.55;1.75;;;;;;;;;;6236839;28;20056;-90
2023/12/03 10:58:19;;;;;;;4.03;2.05;;;;;;;;;;6254087;28;20313;-91
2023/12/03 11:01:25;;;;;;;3.33;1.73;;;;;;;;;;6253943;28;20087;-90
2023/12/03 11:04:44;;;;;;;3.50;1.73;;;;;;;;;;6256682;28;20077;-89
2023/12/03 11:07:47;;;;;;;5.47;1.65;;;;;;;;;;6255540;28;20060;-91
2023/12/03 11:10:55;;;;;;;2.47;1.73;;;;;;;;;;6256895;28;20053;-90
2023/12/03 11:14:10;;;;;;;4.63;1.60;;;;;;;;;;6256106;28;20332;-91
2023/12/03 11:17:19;;;;;;;4.20;1.60;;;;;;;;;;6253846;28;20163;-90
2023/12/03 11:20:32;;;;;;;3.30;1.83;;;;;;;;;;6253167;28;20068;-89
2023/12/03 11:23:45;;;;;;;5.57;1.65;;;;;;;;;;6257595;28;20103;-90
2023/12/03 11:26:52;;;;;;;3.13;1.70;;;;;;;;;;6274416;28;20069;-88
2023/12/03 11:30:04;;;;;;;3.25;1.55;;;;;;;;;;6257670;28;20096;-90
2023/12/03 11:33:13;;;;;;;2.92;1.63;;;;;;;;;;6253424;28;20125;-89
2023/12/03 11:36:19;;;;;;;5.13;1.90;;;;;;;;;;6257168;28;20057;-91
2023/12/03 11:39:24;;;;;;;2.72;2.00;;;;;;;;;;6254646;28;20061;-91
2023/12/03 11:42:28;;;;;;;3.83;1.50;;;;;;;;;;6256215;28;20048;-81
2023/12/03 11:45:30;;;;;;;2.63;1.52;;;;;;;;;;6254035;28;20049;-95
2023/12/03 11:48:38;;;;;;;2.45;1.40;;;;;;;;;;6254618;28;20049;-90
2023/12/03 11:55:07;;;;;;;3.80;1.70;;;;;;;;;;6256234;28;20049;-92
2023/12/03 11:58:10;;;;;;;7.55;2.20;;;;;;;;;;6255917;28;20124;-93
2023/12/03 12:01:14;;;;;;;;;;;;;;;;;;6255834;28;20215;-90
2023/12/03 12:04:22;;;;;;;2.83;1.73;;;;;;;;;;6254162;28;20105;-93
2023/12/03 12:07:29;;;;;;;2.72;1.48;;;;;;;;;;6255205;28;20464;-89
2023/12/03 12:10:36;;;;;;;2.78;1.48;;;;;;;;;;6254873;28;20065;-96
2023/12/03 12:13:45;;;;;;;4.07;1.60;;;;;;;;;;6256167;28;20056;-94
2023/12/03 12:16:49;;;;;;;4.03;1.30;;;;;;;;;;6261674;28;20087;-96
2023/12/03 12:19:51;;;;;;;8.30;1.95;;;;;;;;;;6253348;28;20068;-93
2023/12/03 12:22:59;;;;;;;7.50;1.48;;;;;;;;;;6254829;28;20052;-88
2023/12/03 12:26:01;;;;;;;3.63;1.30;;;;;;;;;;6253033;28;20053;-87
2023/12/03 12:29:07;;;;;;;2.17;1.30;;;;;;;;;;6250300;28;20372;-85
2023/12/03 12:32:14;;;;;;;2.83;1.50;;;;;;;;;;6253436;28;20322;-88
2023/12/03 12:35:22;;;;;;;3.13;1.40;;;;;;;;;;6252165;28;20049;-89
2023/12/03 12:38:30;;;;;;;1.75;1.45;;;;;;;;;;6252156;28;20102;-88
2023/12/03 12:41:41;;;;;;;3.75;1.60;;;;;;;;;;6237432;28;20083;-92
2023/12/03 12:44:45;;;;;;;2.97;1.30;;;;;;;;;;6253957;28;20045;-90
2023/12/03 12:47:49;;;;;;;2.70;1.83;;;;;;;;;;6253611;28;20312;-91
2023/12/03 12:50:56;;;;;;;3.47;1.67;;;;;;;;;;6245868;28;20160;-92
2023/12/03 12:57:20;;;;;;;2.83;1.73;;;;;;;;;;6252129;28;20049;-90
2023/12/03 13:00:26;;;;;;;3.88;1.85;;;;;;;;;;6250165;28;20049;-91
2023/12/03 13:03:36;;;;;;;5.32;1.90;;;;;;;;;;6253912;28;20124;-90
2023/12/03 13:06:38;;;;;;;2.78;1.60;;;;;;;;;;6250196;28;20041;-89
2023/12/03 13:13:07;;;;;;;3.22;1.67;;;;;;;;;;6240457;28;20053;-90
2023/12/03 13:16:36;;;;;;;5.55;1.60;;;;;;;;;;6233093;28;20310;-92
2023/12/03 13:19:39;;;;;;;4.25;2.50;;;;;;;;;;6271773;28;20356;-89
2023/12/03 13:22:49;;;;;;;7.15;2.10;;;;;;;;;;6258610;28;20249;-92
2023/12/03 13:36:46;;;;;;;2.67;1.70;;;;;;;;;;6278057;28;20040;-95
2023/12/03 13:39:50;;;;;;;3.60;1.83;;;;;;;;;;6263096;28;20064;-93
2023/12/03 13:47:27;;;;;;;5.97;2.25;;;;;;;;;;6250706;28;20053;-90
2023/12/03 13:50:37;;;;;;;7.28;2.50;;;;;;;;;;6255318;28;20045;-96
2023/12/03 13:54:08;;;;;;;42.95;4.63;;;;;;;;;;6277987;28;20044;-96
2023/12/03 13:57:15;;;;;;;17.00;4.25;;;;;;;;;;6265118;28;20057;-94
2023/12/03 14:00:29;;;;;;;5.82;2.03;;;;;;;;;;6246367;28;20079;-93
2023/12/03 14:03:37;;;;;;;8.03;2.23;;;;;;;;;;6284588;28;20054;-96
2023/12/03 14:06:51;;;;;;;3.83;2.10;;;;;;;;;;6282361;28;20443;-94
2023/12/03 14:09:56;;;;;;;4.13;1.65;;;;;;;;;;6282379;28;20112;-94
2023/12/03 14:13:06;;;;;;;6.82;1.50;;;;;;;;;;6264769;28;20052;-96
2023/12/03 14:19:37;;;;;;;2.33;1.63;;;;;;;;;;6281471;28;20049;-92
2023/12/03 14:22:40;;;;;;;6.32;2.13;;;;;;;;;;6257875;28;20049;-93
2023/12/03 14:25:42;;;;;;;3.00;1.67;;;;;;;;;;6265664;28;20102;-92
2023/12/03 14:28:47;;;;;;;3.67;1.95;;;;;;;;;;6233764;28;20137;-94
2023/12/03 14:31:57;;;;;;;5.05;2.08;;;;;;;;;;6258098;28;20056;-93
2023/12/03 14:35:08;;;;;;;3.03;1.63;;;;;;;;;;6251622;28;20060;-94
2023/12/03 14:41:32;;;;;;;3.58;1.77;;;;;;;;;;6279687;28;20049;-91
2023/12/03 14:44:43;;;;;;;65.35;31.73;;;;;;;;;;6280281;28;20237;-92
2023/12/03 14:47:51;;;;;;;248.50;93.63;;;;;;;;;;6263140;28;20098;-91
2023/12/03 14:50:53;;;;;;;96.53;44.55;;;;;;;;;;6280748;28;20052;-91
2023/12/03 14:54:03;;;;;;;11.55;7.18;;;;;;;;;;6285072;28;20061;-94
2023/12/03 14:57:15;;;;;;;3.58;2.38;;;;;;;;;;6257593;28;20321;-95
2023/12/03 15:00:21;;;;;;;3.25;1.80;;;;;;;;;;6278694;28;20076;-95
2023/12/03 15:03:25;;;;;;;3.95;2.05;;;;;;;;;;6283787;28;20120;-96
2023/12/03 15:06:32;;;;;;;3.95;2.28;;;;;;;;;;6277356;28;20120;-91
2023/12/03 15:09:38;;;;;;;4.18;2.13;;;;;;;;;;6276497;28;20057;-90
2023/12/03 15:12:40;;;;;;;4.47;2.28;;;;;;;;;;6282824;28;20114;-94
2023/12/03 15:15:44;;;;;;;4.40;2.95;;;;;;;;;;6277518;28;20143;-95
2023/12/03 15:18:49;;;;;;;5.75;2.85;;;;;;;;;;6270132;28;20051;-94
2023/12/03 15:21:52;;;;;;;4.93;2.72;;;;;;;;;;6260442;28;20103;-96
2023/12/03 15:24:56;;;;;;;3.07;1.93;;;;;;;;;;6260298;28;20234;-94
2023/12/03 15:27:59;;;;;;;4.28;2.63;;;;;;;;;;6276986;28;20057;-93
2023/12/03 15:37:50;;;;;;;6.97;3.22;;;;;;;;;;6260236;28;20052;-96
2023/12/03 15:41:05;;;;;;;6.60;2.55;;;;;;;;;;6257672;28;20045;-96
2023/12/03 15:44:07;;;;;;;5.55;2.58;;;;;;;;;;6258352;28;20077;-96
2023/12/03 15:47:09;;;;;;;5.90;2.67;;;;;;;;;;6252346;28;20113;-96
2023/12/03 15:50:14;;;;;;;3.10;2.15;;;;;;;;;;6250557;28;20065;-96
2023/12/03 15:53:18;;;;;;;5.35;2.53;;;;;;;;;;6237036;28;20046;-95
2023/12/03 15:56:26;;;;;;;;;;;;;;;;;;6252799;28;20064;-96
2023/12/03 15:59:39;;;;;;;3.75;2.20;;;;;;;;;;6259747;28;19925;-96
2023/12/03 16:02:49;;;;;;;2.85;2.10;;;;;;;;;;6246105;28;20053;-96
2023/12/03 16:05:52;;;;;;;5.68;2.78;;;;;;;;;;6258595;28;20049;-96
2023/12/03 16:12:27;;;;;;;3.80;2.53;;;;;;;;;;6265953;28;20045;-96
2023/12/03 16:15:33;;;;;;;4.68;2.53;;;;;;;;;;6250863;28;20357;-96
2023/12/03 16:18:36;;;;;;;3.78;2.33;;;;;;;;;;6252056;28;20338;-96
2023/12/03 16:22:10;;;;;;;3.53;2.30;;;;;;;;;;6251353;28;20050;-96
2023/12/03 16:25:16;;;;;;;7.73;2.80;;;;;;;;;;6260064;28;20449;-96
2023/12/03 16:28:21;;;;;;;4.20;2.42;;;;;;;;;;6250597;28;20061;-95
2023/12/03 16:34:47;;;;;;;6.78;2.70;;;;;;;;;;6199437;28;20058;-96
2023/12/03 16:41:15;;;;;;;4.45;2.40;;;;;;;;;;6242523;28;20049;-95
2023/12/03 16:44:26;;;;;;;3.42;2.60;;;;;;;;;;6250711;28;20061;-96
2023/12/03 16:47:36;;;;;;;3.95;2.53;;;;;;;;;;6222029;28;20056;-96
2023/12/03 16:51:10;;;;;;;5.40;2.40;;;;;;;;;;6237406;28;20111;-96
2023/12/03 16:57:59;;;;;;;3.72;2.67;;;;;;;;;;6237709;28;20049;-95
2023/12/03 17:01:15;;;;;;;3.85;2.47;;;;;;;;;;6218101;28;20130;-95
2023/12/03 17:04:26;;;;;;;6.35;2.55;;;;;;;;;;6200955;28;20246;-95
2023/12/03 17:07:28;;;;;;;5.28;2.65;;;;;;;;;;6249585;28;20053;-96
2023/12/03 17:10:37;;;;;;;5.88;2.90;;;;;;;;;;6252979;28;20053;-96
2023/12/03 17:13:41;;;;;;;4.97;2.38;;;;;;;;;;6238381;28;20081;-96
2023/12/03 17:16:48;;;;;;;4.45;3.05;;;;;;;;;;6247847;28;20045;-96
2023/12/03 17:19:50;;;;;;;5.70;2.70;;;;;;;;;;6275133;28;20079;-96
2023/12/03 17:22:57;;;;;;;6.20;3.35;;;;;;;;;;6277723;28;20341;-96
2023/12/03 17:32:49;;;;;;;5.53;3.50;;;;;;;;;;6230330;28;20069;-96
2023/12/03 17:52:45;;;;;;;14.13;7.60;;;;;;;;;;6259671;28;20040;-96
2023/12/03 17:55:48;;;;;;;8.80;4.63;;;;;;;;;;6260025;28;20055;-96
2023/12/03 17:58:56;;;;;;;7.30;4.20;;;;;;;;;;6276706;28;20075;-96
2023/12/03 18:02:00;;;;;;;5.45;3.47;;;;;;;;;;6263668;28;20061;-95
2023/12/03 18:05:08;;;;;;;5.93;4.10;;;;;;;;;;6276337;28;20340;-95
2023/12/03 18:08:31;;;;;;;6.07;3.90;;;;;;;;;;6159923;28;20054;-95
2023/12/03 18:11:34;;;;;;;;;;;;;;;;;;6184971;28;20113;-94
2023/12/03 18:14:37;;;;;;;8.07;3.47;;;;;;;;;;6182593;28;19926;-96
2023/12/03 18:17:43;;;;;;;11.20;4.10;;;;;;;;;;6184563;28;20101;-96
2023/12/03 18:20:47;;;;;;;7.07;4.13;;;;;;;;;;6164159;28;20125;-96
2023/12/03 18:27:19;;;;;;;6.85;4.55;;;;;;;;;;6019012;28;20043;-96
2023/12/03 18:30:43;;;;;;;5.82;3.67;;;;;;;;;;6153364;28;20042;-96
2023/12/03 18:33:48;;;;;;;7.03;4.65;;;;;;;;;;6211991;28;20042;-96
2023/12/03 18:36:57;;;;;;;8.75;4.10;;;;;;;;;;6207232;28;20056;-96
2023/12/03 18:43:21;;;;;;;9.10;4.13;;;;;;;;;;6169620;28;20449;-96
2023/12/03 18:56:32;;;;;;;5.05;3.78;;;;;;;;;;6164593;28;20051;-96
2023/12/03 19:06:50;;;;;;;8.80;3.97;;;;;;;;;;6090175;29;20036;-96
2023/12/03 19:25:34;;;;;;;6.40;4.03;;;;;;;;;;5983893;29;20047;-96
2023/12/03 19:28:37;;;;;;;5.93;4.03;;;;;;;;;;5981041;29;20058;-96
2023/12/03 19:31:50;;;;;;;8.85;4.68;;;;;;;;;;5997613;29;20188;-96
2023/12/03 19:35:34;;;;;;;7.40;4.22;;;;;;;;;;6000690;29;20054;-96
2023/12/03 19:45:54;;;;;;;11.40;5.60;;;;;;;;;;5989751;29;20360;-96
2023/12/03 19:49:02;;;;;;;7.75;5.03;;;;;;;;;;6038073;29;20358;-96
2023/12/03 21:37:01;;;;;;;13.50;8.30;;;;;;;;;;6046106;29;20102;-96
2023/12/03 22:37:15;;;;;;;15.65;8.82;;;;;;;;;;6155050;28;20054;-96
2023/12/03 22:40:21;;;;;;;15.23;8.70;;;;;;;;;;6216258;28;20120;-96
2023/12/03 22:46:44;;;;;;;19.75;9.07;;;;;;;;;;6189755;28;20072;-96
2023/12/03 22:49:49;;;;;;;13.60;8.07;;;;;;;;;;6216980;28;20105;-97
2023/12/03 22:52:51;;;;;;;;;;;;;;;;;;6207272;28;20078;-96
